createdAt,value
2017-08-27T00:01:37.374Z,19.80
2017-08-27T00:04:06.808Z,19.70
2017-08-27T00:06:36.219Z,19.70
2017-08-27T00:09:05.275Z,19.70
2017-08-27T00:11:34.712Z,19.60
2017-08-27T00:14:04.113Z,19.60
2017-08-27T00:16:33.327Z,19.50
2017-08-27T00:19:02.732Z,19.40
2017-08-27T00:21:32.159Z,19.40
2017-08-27T00:24:01.592Z,19.50
2017-08-27T00:26:30.992Z,19.50
2017-08-27T00:29:01.976Z,19.40
2017-08-27T00:31:31.393Z,19.30
2017-08-27T00:34:00.489Z,19.30
2017-08-27T00:36:29.539Z,19.30
2017-08-27T00:38:58.961Z,19.30
2017-08-27T00:41:28.386Z,19.30
2017-08-27T00:43:57.824Z,19.40
2017-08-27T00:46:27.258Z,19.40
2017-08-27T00:48:56.641Z,19.30
2017-08-27T00:51:25.716Z,19.30
2017-08-27T00:53:55.145Z,19.40
2017-08-27T00:56:24.542Z,19.50
2017-08-27T00:58:53.981Z,19.50
2017-08-27T01:01:23.390Z,19.50
2017-08-27T01:03:52.833Z,19.50
2017-08-27T01:06:21.896Z,19.60
2017-08-27T01:08:51.313Z,19.60
2017-08-27T01:11:20.176Z,19.60
2017-08-27T01:13:49.592Z,19.60
2017-08-27T01:16:19.021Z,19.60
2017-08-27T01:18:48.238Z,19.50
2017-08-27T01:21:17.628Z,19.50
2017-08-27T01:23:46.730Z,19.50
2017-08-27T01:26:15.974Z,19.50
2017-08-27T01:28:45.396Z,19.40
2017-08-27T01:31:14.801Z,19.40
2017-08-27T01:33:44.225Z,19.30
2017-08-27T01:36:13.643Z,19.20
2017-08-27T01:38:43.182Z,19.10
2017-08-27T01:41:12.583Z,19.00
2017-08-27T01:43:41.659Z,19.00
2017-08-27T01:46:11.089Z,19.00
2017-08-27T01:48:40.481Z,18.90
2017-08-27T01:51:09.912Z,19.00
2017-08-27T01:53:39.341Z,19.00
2017-08-27T01:56:08.779Z,18.90
2017-08-27T01:58:38.190Z,18.80
2017-08-27T02:01:07.609Z,18.90
2017-08-27T02:03:36.821Z,18.90
2017-08-27T02:06:06.038Z,18.80
2017-08-27T02:08:35.432Z,18.80
2017-08-27T02:11:04.856Z,18.80
2017-08-27T02:13:34.257Z,18.80
2017-08-27T02:16:03.677Z,18.80
2017-08-27T02:18:33.093Z,18.80
2017-08-27T02:21:02.517Z,18.90
2017-08-27T02:23:31.931Z,18.90
2017-08-27T02:26:01.349Z,18.90
2017-08-27T02:28:30.558Z,18.80
2017-08-27T02:30:59.960Z,18.80
2017-08-27T02:33:29.372Z,18.80
2017-08-27T02:35:58.801Z,18.70
2017-08-27T02:38:28.232Z,18.70
2017-08-27T02:40:57.617Z,18.70
2017-08-27T02:43:27.052Z,18.60
2017-08-27T02:45:56.450Z,18.60
2017-08-27T02:48:25.852Z,18.60
2017-08-27T02:50:55.258Z,18.60
2017-08-27T02:53:24.509Z,18.60
2017-08-27T02:55:53.915Z,18.60
2017-08-27T02:58:23.323Z,18.60
2017-08-27T03:00:52.738Z,18.60
2017-08-27T03:03:22.170Z,18.70
2017-08-27T03:05:51.571Z,18.70
2017-08-27T03:08:21.020Z,18.70
2017-08-27T03:10:50.414Z,18.70
2017-08-27T03:13:19.814Z,18.70
2017-08-27T03:15:49.232Z,18.70
2017-08-27T03:18:18.620Z,18.70
2017-08-27T03:20:48.039Z,18.70
2017-08-27T03:23:20.501Z,18.60
2017-08-27T03:25:49.935Z,18.60
2017-08-27T03:28:19.138Z,18.60
2017-08-27T03:30:48.562Z,18.50
2017-08-27T03:33:17.979Z,18.50
2017-08-27T03:35:47.424Z,18.50
2017-08-27T03:38:16.814Z,18.50
2017-08-27T03:40:46.233Z,18.50
2017-08-27T03:43:15.643Z,18.50
2017-08-27T03:45:45.052Z,18.60
2017-08-27T03:48:14.461Z,18.60
2017-08-27T03:50:43.882Z,18.60
2017-08-27T03:53:13.286Z,18.60
2017-08-27T03:55:42.492Z,18.70
2017-08-27T03:58:11.716Z,18.70
2017-08-27T04:00:41.157Z,18.70
2017-08-27T04:03:10.561Z,18.80
2017-08-27T04:05:39.980Z,18.80
2017-08-27T04:08:10.145Z,18.80
2017-08-27T04:10:39.567Z,18.80
2017-08-27T04:13:08.978Z,18.80
2017-08-27T04:15:38.382Z,18.80
2017-08-27T04:18:07.784Z,18.80
2017-08-27T04:20:37.205Z,18.70
2017-08-27T04:23:06.620Z,18.80
2017-08-27T04:25:35.836Z,18.80
2017-08-27T04:28:05.254Z,18.80
2017-08-27T04:30:34.493Z,18.80
2017-08-27T04:33:03.931Z,18.80
2017-08-27T04:35:33.336Z,18.90
2017-08-27T04:38:02.745Z,18.90
2017-08-27T04:40:32.153Z,19.00
2017-08-27T04:43:01.549Z,19.00
2017-08-27T04:45:30.973Z,19.00
2017-08-27T04:48:00.382Z,19.00
2017-08-27T04:50:29.806Z,19.00
2017-08-27T04:52:59.224Z,19.00
2017-08-27T04:55:28.658Z,19.00
2017-08-27T04:57:58.061Z,18.90
2017-08-27T05:00:27.476Z,18.90
2017-08-27T05:02:56.909Z,18.90
2017-08-27T05:05:26.335Z,18.90
2017-08-27T05:07:55.749Z,18.90
2017-08-27T05:10:25.165Z,19.00
2017-08-27T05:12:54.593Z,18.90
2017-08-27T05:15:23.989Z,18.90
2017-08-27T05:17:53.419Z,18.90
2017-08-27T05:20:22.818Z,18.90
2017-08-27T05:22:52.259Z,19.00
2017-08-27T05:25:21.685Z,18.90
2017-08-27T05:27:51.130Z,18.90
2017-08-27T05:30:20.547Z,18.80
2017-08-27T05:32:49.959Z,18.90
2017-08-27T05:35:19.383Z,18.90
2017-08-27T05:37:48.796Z,18.80
2017-08-27T05:40:18.218Z,18.80
2017-08-27T05:42:47.624Z,18.90
2017-08-27T05:45:17.034Z,19.00
2017-08-27T05:47:46.454Z,19.10
2017-08-27T05:50:15.875Z,19.20
2017-08-27T05:52:45.325Z,19.30
2017-08-27T05:55:14.729Z,19.50
2017-08-27T05:57:44.147Z,19.50
2017-08-27T06:00:13.574Z,19.30
2017-08-27T06:02:43.042Z,19.30
2017-08-27T06:05:12.462Z,19.20
2017-08-27T06:07:41.887Z,19.10
2017-08-27T06:10:11.123Z,19.10
2017-08-27T06:12:40.546Z,19.10
2017-08-27T06:15:09.962Z,19.20
2017-08-27T06:17:39.412Z,19.20
2017-08-27T06:20:08.828Z,19.20
2017-08-27T06:22:38.340Z,19.30
2017-08-27T06:25:07.737Z,19.20
2017-08-27T06:27:36.981Z,19.30
2017-08-27T06:30:06.538Z,19.30
2017-08-27T06:32:35.933Z,19.20
2017-08-27T06:35:05.347Z,19.30
2017-08-27T06:37:34.741Z,19.30
2017-08-27T06:40:04.162Z,19.20
2017-08-27T06:42:33.592Z,19.20
2017-08-27T06:45:03.025Z,19.30
2017-08-27T06:47:32.434Z,19.30
2017-08-27T06:50:01.866Z,19.30
2017-08-27T06:52:31.280Z,19.30
2017-08-27T06:55:00.762Z,19.40
2017-08-27T06:57:30.170Z,19.40
2017-08-27T06:59:59.585Z,19.40
2017-08-27T07:02:28.989Z,19.60
2017-08-27T07:04:58.411Z,19.70
2017-08-27T07:07:27.804Z,19.60
2017-08-27T07:09:57.251Z,19.60
2017-08-27T07:12:26.650Z,19.60
2017-08-27T07:14:56.066Z,19.70
2017-08-27T07:17:25.473Z,19.70
2017-08-27T07:19:54.911Z,19.70
2017-08-27T07:22:24.313Z,19.70
2017-08-27T07:24:53.726Z,19.70
2017-08-27T07:27:22.931Z,19.90
2017-08-27T07:29:52.403Z,20.10
2017-08-27T07:32:21.792Z,20.40
2017-08-27T07:34:51.229Z,20.50
2017-08-27T07:37:20.620Z,20.80
2017-08-27T07:39:50.061Z,21.00
2017-08-27T07:42:19.474Z,20.90
2017-08-27T07:44:48.888Z,21.30
2017-08-27T07:47:18.303Z,21.60
2017-08-27T07:49:48.507Z,21.70
2017-08-27T07:52:17.898Z,21.70
2017-08-27T07:54:47.323Z,21.80
2017-08-27T07:57:16.747Z,22.00
2017-08-27T07:59:46.141Z,22.20
2017-08-27T08:02:15.551Z,22.10
2017-08-27T08:04:44.949Z,21.90
2017-08-27T08:07:14.358Z,22.00
2017-08-27T08:09:43.757Z,22.10
2017-08-27T08:12:13.185Z,22.30
2017-08-27T08:14:42.588Z,22.00
2017-08-27T08:17:12.392Z,22.20
2017-08-27T08:19:41.821Z,22.60
2017-08-27T08:22:11.235Z,22.90
2017-08-27T08:24:40.639Z,22.80
2017-08-27T08:27:10.084Z,22.80
2017-08-27T08:29:39.494Z,22.70
2017-08-27T08:32:08.915Z,22.70
2017-08-27T08:34:38.298Z,22.50
2017-08-27T08:37:07.726Z,22.70
2017-08-27T08:39:37.339Z,22.90
2017-08-27T08:42:06.798Z,22.90
2017-08-27T08:44:36.197Z,22.70
2017-08-27T08:47:05.593Z,22.70
2017-08-27T08:49:35.047Z,22.80
2017-08-27T08:52:04.425Z,22.70
2017-08-27T08:54:33.845Z,22.60
2017-08-27T08:57:03.235Z,22.50
2017-08-27T08:59:32.677Z,22.50
2017-08-27T09:02:02.070Z,22.60
2017-08-27T09:04:31.518Z,22.70
2017-08-27T09:07:00.909Z,22.60
2017-08-27T09:09:30.303Z,22.60
2017-08-27T09:11:59.700Z,22.80
2017-08-27T09:14:29.120Z,23.10
2017-08-27T09:16:58.327Z,23.20
2017-08-27T09:19:27.539Z,23.30
2017-08-27T09:21:56.931Z,23.60
2017-08-27T09:24:26.354Z,23.90
2017-08-27T09:26:55.751Z,23.50
2017-08-27T09:29:25.169Z,23.00
2017-08-27T09:31:54.570Z,22.80
2017-08-27T09:34:23.960Z,23.00
2017-08-27T09:36:53.369Z,23.50
2017-08-27T09:39:22.425Z,23.90
2017-08-27T09:41:51.860Z,24.00
2017-08-27T09:44:21.517Z,23.60
2017-08-27T09:46:50.914Z,24.30
2017-08-27T09:49:20.352Z,24.30
2017-08-27T09:51:49.739Z,24.30
2017-08-27T09:54:19.179Z,24.50
2017-08-27T09:56:48.573Z,24.50
2017-08-27T09:59:17.997Z,24.90
2017-08-27T10:01:47.414Z,24.90
2017-08-27T10:04:16.796Z,24.50
2017-08-27T10:06:46.228Z,24.80
2017-08-27T10:09:15.625Z,25.00
2017-08-27T10:11:49.888Z,24.70
2017-08-27T10:14:19.273Z,24.50
2017-08-27T10:16:48.712Z,23.90
2017-08-27T10:19:18.098Z,23.50
2017-08-27T10:21:47.501Z,23.20
2017-08-27T10:24:16.937Z,23.80
2017-08-27T10:26:46.340Z,24.40
2017-08-27T10:29:15.746Z,25.40
2017-08-27T10:31:45.157Z,26.20
2017-08-27T10:34:14.369Z,26.30
2017-08-27T10:36:43.788Z,26.30
2017-08-27T10:39:13.162Z,25.90
2017-08-27T10:41:42.581Z,25.10
2017-08-27T10:44:11.991Z,25.10
2017-08-27T10:46:41.210Z,25.60
2017-08-27T10:49:10.609Z,26.40
2017-08-27T10:51:40.017Z,26.30
2017-08-27T10:54:09.405Z,26.80
2017-08-27T10:56:38.834Z,27.00
2017-08-27T10:59:08.223Z,27.60
2017-08-27T11:01:37.649Z,27.50
2017-08-27T11:04:07.806Z,27.60
2017-08-27T11:06:37.205Z,27.60
2017-08-27T11:09:06.611Z,27.00
2017-08-27T11:11:36.005Z,26.30
2017-08-27T11:14:05.399Z,26.00
2017-08-27T11:16:34.806Z,25.40
2017-08-27T11:19:04.224Z,25.50
2017-08-27T11:21:33.639Z,26.50
2017-08-27T11:24:03.027Z,27.20
2017-08-27T11:26:32.425Z,27.40
2017-08-27T11:29:01.837Z,28.10
2017-08-27T11:31:31.234Z,28.80
2017-08-27T11:34:00.643Z,28.50
2017-08-27T11:36:30.034Z,28.40
2017-08-27T11:38:59.434Z,27.90
2017-08-27T11:41:28.818Z,26.60
2017-08-27T11:43:58.231Z,25.90
2017-08-27T11:46:27.619Z,26.10
2017-08-27T11:48:57.037Z,26.80
2017-08-27T11:51:26.445Z,26.90
2017-08-27T11:53:55.866Z,26.40
2017-08-27T11:56:25.264Z,26.10
2017-08-27T11:58:54.691Z,26.40
2017-08-27T12:01:24.090Z,27.50
2017-08-27T12:03:53.524Z,27.90
2017-08-27T12:06:22.919Z,28.80
2017-08-27T12:08:52.327Z,28.50
2017-08-27T12:11:21.754Z,28.50
2017-08-27T12:13:51.988Z,29.70
2017-08-27T12:16:21.369Z,29.70
2017-08-27T12:18:50.782Z,29.30
2017-08-27T12:21:20.238Z,29.40
2017-08-27T12:23:49.627Z,28.70
2017-08-27T12:26:19.088Z,28.00
2017-08-27T12:28:48.493Z,28.20
2017-08-27T12:31:17.926Z,28.60
2017-08-27T12:33:47.324Z,29.20
2017-08-27T12:36:16.729Z,30.30
2017-08-27T12:38:46.109Z,31.20
2017-08-27T12:41:15.505Z,30.50
2017-08-27T12:43:44.905Z,30.90
2017-08-27T12:46:14.339Z,30.90
2017-08-27T12:48:43.718Z,29.50
2017-08-27T12:51:13.126Z,28.50
2017-08-27T12:53:42.516Z,28.40
2017-08-27T12:56:11.921Z,27.20
2017-08-27T12:58:41.351Z,26.30
2017-08-27T13:01:10.771Z,27.20
2017-08-27T13:03:40.175Z,28.10
2017-08-27T13:06:09.578Z,29.20
2017-08-27T13:08:38.961Z,29.80
2017-08-27T13:11:08.364Z,29.80
2017-08-27T13:13:37.753Z,30.20
2017-08-27T13:16:07.156Z,28.70
2017-08-27T13:18:36.536Z,27.40
2017-08-27T13:21:05.952Z,26.70
2017-08-27T13:23:35.344Z,27.00
2017-08-27T13:26:04.771Z,28.10
2017-08-27T13:28:34.187Z,29.50
2017-08-27T13:31:03.386Z,30.00
2017-08-27T13:33:32.807Z,30.80
2017-08-27T13:36:02.187Z,30.30
2017-08-27T13:38:31.597Z,30.70
2017-08-27T13:41:01.002Z,30.30
2017-08-27T13:43:30.402Z,29.30
2017-08-27T13:45:59.794Z,28.90
2017-08-27T13:48:29.218Z,28.60
2017-08-27T13:50:58.596Z,28.20
2017-08-27T13:53:27.995Z,29.00
2017-08-27T13:55:57.399Z,28.50
2017-08-27T13:58:26.795Z,29.00
2017-08-27T14:00:56.193Z,29.10
2017-08-27T14:03:25.608Z,29.80
2017-08-27T14:05:55.013Z,30.30
2017-08-27T14:08:24.417Z,30.90
2017-08-27T14:10:53.814Z,30.70
2017-08-27T14:13:23.227Z,29.20
2017-08-27T14:15:52.606Z,28.70
2017-08-27T14:18:22.005Z,28.70
2017-08-27T14:20:51.397Z,29.20
2017-08-27T14:23:20.676Z,28.80
2017-08-27T14:25:49.922Z,29.20
2017-08-27T14:28:19.332Z,29.40
2017-08-27T14:30:48.715Z,30.20
2017-08-27T14:33:18.135Z,30.20
2017-08-27T14:35:47.527Z,29.90
2017-08-27T14:38:16.949Z,29.50
2017-08-27T14:40:46.336Z,28.90
2017-08-27T14:43:15.737Z,29.10
2017-08-27T14:45:45.130Z,29.30
2017-08-27T14:48:14.544Z,29.60
2017-08-27T14:50:43.926Z,29.60
2017-08-27T14:53:13.309Z,29.50
2017-08-27T14:55:42.711Z,28.50
2017-08-27T14:58:12.884Z,27.50
2017-08-27T15:00:42.283Z,27.40
2017-08-27T15:03:11.664Z,27.40
2017-08-27T15:05:41.083Z,26.90
2017-08-27T15:08:10.519Z,26.80
2017-08-27T15:10:39.919Z,26.70
2017-08-27T15:13:09.317Z,26.60
2017-08-27T15:15:38.732Z,26.30
2017-08-27T15:18:08.112Z,26.20
2017-08-27T15:20:37.543Z,25.90
2017-08-27T15:23:06.758Z,25.60
2017-08-27T15:25:36.199Z,25.00
2017-08-27T15:28:05.596Z,24.80
2017-08-27T15:30:35.016Z,25.10
2017-08-27T15:33:04.237Z,25.10
2017-08-27T15:35:33.882Z,25.30
2017-08-27T15:38:03.256Z,25.50
2017-08-27T15:40:32.666Z,25.40
2017-08-27T15:43:02.050Z,25.40
2017-08-27T15:45:31.474Z,25.20
2017-08-27T15:48:00.954Z,25.10
2017-08-27T15:50:30.489Z,24.70
2017-08-27T15:52:59.893Z,24.50
2017-08-27T15:55:29.072Z,24.30
2017-08-27T15:57:58.156Z,24.20
2017-08-27T16:00:27.355Z,24.20
2017-08-27T16:02:56.753Z,24.20
2017-08-27T16:05:26.142Z,23.90
2017-08-27T16:07:55.548Z,24.00
2017-08-27T16:10:24.747Z,24.00
2017-08-27T16:12:54.145Z,24.10
2017-08-27T16:15:23.355Z,24.30
2017-08-27T16:17:52.753Z,24.10
2017-08-27T16:20:22.163Z,24.10
2017-08-27T16:22:51.383Z,23.80
2017-08-27T16:25:20.594Z,23.60
2017-08-27T16:27:49.825Z,23.70
2017-08-27T16:30:19.033Z,23.60
2017-08-27T16:32:48.245Z,23.40
2017-08-27T16:35:17.554Z,23.30
2017-08-27T16:37:46.786Z,23.20
2017-08-27T16:40:16.772Z,23.10
2017-08-27T16:42:45.998Z,23.10
2017-08-27T16:45:15.218Z,23.00
2017-08-27T16:47:44.396Z,23.00
2017-08-27T16:50:13.291Z,22.90
2017-08-27T16:52:42.505Z,22.80
2017-08-27T16:55:11.906Z,22.80
2017-08-27T16:57:41.288Z,22.80
2017-08-27T17:00:10.693Z,22.70
2017-08-27T17:02:40.069Z,22.60
2017-08-27T17:05:09.503Z,22.60
2017-08-27T17:07:38.368Z,22.50
2017-08-27T17:10:07.581Z,22.40
2017-08-27T17:12:36.801Z,22.40
2017-08-27T17:15:06.025Z,22.40
2017-08-27T17:17:35.590Z,22.30
2017-08-27T17:20:04.808Z,22.30
2017-08-27T17:22:34.022Z,22.30
2017-08-27T17:25:03.255Z,22.20
2017-08-27T17:27:32.449Z,22.30
2017-08-27T17:30:01.679Z,22.20
2017-08-27T17:32:30.871Z,22.10
2017-08-27T17:35:00.098Z,22.10
2017-08-27T17:37:29.299Z,22.00
2017-08-27T17:39:58.547Z,22.10
2017-08-27T17:42:27.797Z,22.00
2017-08-27T17:44:57.020Z,22.00
2017-08-27T17:47:26.225Z,22.10
2017-08-27T17:49:55.450Z,22.00
2017-08-27T17:52:24.691Z,22.10
2017-08-27T17:54:53.940Z,22.10
2017-08-27T17:57:23.417Z,22.10
2017-08-27T17:59:52.642Z,22.00
2017-08-27T18:02:21.902Z,22.00
2017-08-27T18:04:51.101Z,21.90
2017-08-27T18:07:20.523Z,21.90
2017-08-27T18:09:49.726Z,21.80
2017-08-27T18:12:18.950Z,21.80
2017-08-27T18:14:48.175Z,21.80
2017-08-27T18:17:17.415Z,21.80
2017-08-27T18:19:46.801Z,21.70
2017-08-27T18:22:16.201Z,21.60
2017-08-27T18:24:45.481Z,21.50
2017-08-27T18:27:14.886Z,21.50
2017-08-27T18:29:44.287Z,21.50
2017-08-27T18:32:13.513Z,21.50
2017-08-27T18:34:42.731Z,21.50
2017-08-27T18:37:12.280Z,21.50
2017-08-27T18:39:41.703Z,21.50
2017-08-27T18:42:11.864Z,21.40
2017-08-27T18:44:41.238Z,21.40
2017-08-27T18:47:10.644Z,21.50
2017-08-27T18:49:40.025Z,21.50
2017-08-27T18:52:09.435Z,21.50
2017-08-27T18:54:38.822Z,21.40
2017-08-27T18:57:08.053Z,21.40
2017-08-27T18:59:37.492Z,21.40
2017-08-27T19:02:06.903Z,21.40
2017-08-27T19:04:35.961Z,21.40
2017-08-27T19:07:05.364Z,21.30
2017-08-27T19:09:34.737Z,21.30
2017-08-27T19:12:04.233Z,21.20
2017-08-27T19:14:33.607Z,21.20
2017-08-27T19:17:02.859Z,21.30
2017-08-27T19:19:32.055Z,21.20
2017-08-27T19:22:01.496Z,21.20
2017-08-27T19:24:30.878Z,21.10
2017-08-27T19:27:00.270Z,21.10
2017-08-27T19:29:29.668Z,21.10
2017-08-27T19:31:59.062Z,21.10
2017-08-27T19:34:28.481Z,21.00
2017-08-27T19:36:57.865Z,20.90
2017-08-27T19:39:27.269Z,20.80
2017-08-27T19:41:56.687Z,20.70
2017-08-27T19:44:26.094Z,20.70
2017-08-27T19:46:55.477Z,20.70
2017-08-27T19:49:24.880Z,20.60
2017-08-27T19:51:54.285Z,20.50
2017-08-27T19:54:23.684Z,20.50
2017-08-27T19:56:53.084Z,20.50
2017-08-27T19:59:22.477Z,20.30
2017-08-27T20:01:51.860Z,20.30
2017-08-27T20:04:21.336Z,20.20
2017-08-27T20:06:50.731Z,20.20
2017-08-27T20:09:20.151Z,20.10
2017-08-27T20:11:49.527Z,20.10
2017-08-27T20:14:18.938Z,20.10
2017-08-27T20:16:48.437Z,20.10
2017-08-27T20:19:17.838Z,20.00
2017-08-27T20:21:47.235Z,20.00
2017-08-27T20:24:16.686Z,19.80
2017-08-27T20:26:46.091Z,19.80
2017-08-27T20:29:15.554Z,19.70
2017-08-27T20:31:44.932Z,19.60
2017-08-27T20:34:14.349Z,19.60
2017-08-27T20:36:43.794Z,19.50
2017-08-27T20:39:13.213Z,19.50
2017-08-27T20:41:42.596Z,19.40
2017-08-27T20:44:12.009Z,19.40
2017-08-27T20:46:41.412Z,19.30
2017-08-27T20:49:10.822Z,19.30
2017-08-27T20:51:40.215Z,19.40
2017-08-27T20:54:09.614Z,19.50
2017-08-27T20:56:39.024Z,19.50
2017-08-27T20:59:08.431Z,19.40
2017-08-27T21:01:37.839Z,19.40
2017-08-27T21:04:07.233Z,19.30
2017-08-27T21:06:36.641Z,19.40
2017-08-27T21:09:05.354Z,19.40
2017-08-27T21:11:34.769Z,19.40
2017-08-27T21:14:04.188Z,19.40
2017-08-27T21:16:32.898Z,19.40
2017-08-27T21:19:02.303Z,19.40
2017-08-27T21:21:31.736Z,19.40
2017-08-27T21:24:01.139Z,19.30
2017-08-27T21:26:30.533Z,19.20
2017-08-27T21:28:59.929Z,19.20
2017-08-27T21:31:29.363Z,19.10
2017-08-27T21:33:58.793Z,19.20
2017-08-27T21:36:28.201Z,19.20
2017-08-27T21:38:57.588Z,19.30
2017-08-27T21:41:27.018Z,19.30
2017-08-27T21:43:56.422Z,19.40
2017-08-27T21:46:25.812Z,19.40
2017-08-27T21:48:55.230Z,19.30
2017-08-27T21:51:24.661Z,19.30
2017-08-27T21:53:54.062Z,19.30
2017-08-27T21:56:23.261Z,19.30
2017-08-27T21:58:52.648Z,19.30
2017-08-27T22:01:22.074Z,19.30
2017-08-27T22:03:51.471Z,19.30
2017-08-27T22:06:20.898Z,19.30
2017-08-27T22:08:50.284Z,19.20
2017-08-27T22:11:19.680Z,19.30
2017-08-27T22:13:49.094Z,19.30
2017-08-27T22:16:18.482Z,19.30
2017-08-27T22:18:47.887Z,19.30
2017-08-27T22:21:17.279Z,19.30
2017-08-27T22:23:46.692Z,19.30
2017-08-27T22:26:16.104Z,19.30
2017-08-27T22:28:45.521Z,19.20
2017-08-27T22:31:14.913Z,19.20
2017-08-27T22:33:44.331Z,19.10
2017-08-27T22:36:13.732Z,18.90
2017-08-27T22:38:43.118Z,18.80
2017-08-27T22:41:12.351Z,18.70
2017-08-27T22:43:42.025Z,18.60
2017-08-27T22:46:11.447Z,18.50
2017-08-27T22:48:40.658Z,18.40
2017-08-27T22:51:09.844Z,18.30
2017-08-27T22:53:39.067Z,18.30
2017-08-27T22:56:08.281Z,18.30
2017-08-27T22:58:38.266Z,18.10
2017-08-27T23:01:07.484Z,18.00
2017-08-27T23:03:36.893Z,18.00
2017-08-27T23:06:06.275Z,18.00
2017-08-27T23:08:35.668Z,18.00
2017-08-27T23:11:05.067Z,18.00
2017-08-27T23:13:34.470Z,18.00
2017-08-27T23:16:03.853Z,17.80
2017-08-27T23:18:33.262Z,17.80
2017-08-27T23:21:02.663Z,17.90
2017-08-27T23:23:32.064Z,17.80
2017-08-27T23:26:01.068Z,17.80
2017-08-27T23:28:30.325Z,17.90
2017-08-27T23:30:59.715Z,17.90
2017-08-27T23:33:28.909Z,17.90
2017-08-27T23:35:58.329Z,17.90
2017-08-27T23:38:27.731Z,17.80
2017-08-27T23:40:57.143Z,17.80
2017-08-27T23:43:26.536Z,17.80
2017-08-27T23:45:55.957Z,17.90
2017-08-27T23:48:25.354Z,17.90
2017-08-27T23:50:54.768Z,17.80
2017-08-27T23:53:24.145Z,17.80
2017-08-27T23:55:53.580Z,17.70
2017-08-27T23:58:22.982Z,17.60
